sensor_id;sensor_type;location;lat;lon;timestamp;P1;durP1;ratioP1;P2;durP2;ratioP2
25125;SDS011;13106;50.808;5.670;2022-12-16T00:02:21;88.40;;;40.90;;
25125;SDS011;13106;50.808;5.670;2022-12-16T00:04:47;105.45;;;40.38;;
25125;SDS011;13106;50.808;5.670;2022-12-16T00:07:13;99.07;;;42.33;;
25125;SDS011;13106;50.808;5.670;2022-12-16T00:09:39;86.20;;;41.00;;
25125;SDS011;13106;50.808;5.670;2022-12-16T00:12:05;97.25;;;44.30;;
25125;SDS011;13106;50.808;5.670;2022-12-16T00:14:31;87.10;;;39.05;;
25125;SDS011;13106;50.808;5.670;2022-12-16T00:16:57;91.25;;;41.28;;
25125;SDS011;13106;50.808;5.670;2022-12-16T00:19:23;89.20;;;42.17;;
25125;SDS011;13106;50.808;5.670;2022-12-16T00:21:49;81.55;;;42.58;;
25125;SDS011;13106;50.808;5.670;2022-12-16T00:24:15;81.43;;;40.28;;
25125;SDS011;13106;50.808;5.670;2022-12-16T00:26:41;87.53;;;43.50;;
25125;SDS011;13106;50.808;5.670;2022-12-16T00:29:07;73.07;;;40.65;;
25125;SDS011;13106;50.808;5.670;2022-12-16T00:31:35;89.43;;;41.72;;
25125;SDS011;13106;50.808;5.670;2022-12-16T00:34:01;83.00;;;41.40;;
25125;SDS011;13106;50.808;5.670;2022-12-16T00:36:27;80.07;;;41.17;;
25125;SDS011;13106;50.808;5.670;2022-12-16T00:38:53;78.35;;;41.45;;
25125;SDS011;13106;50.808;5.670;2022-12-16T00:41:19;80.47;;;42.35;;
25125;SDS011;13106;50.808;5.670;2022-12-16T00:43:45;79.95;;;43.70;;
25125;SDS011;13106;50.808;5.670;2022-12-16T00:46:11;81.88;;;41.78;;
25125;SDS011;13106;50.808;5.670;2022-12-16T00:48:37;76.93;;;41.75;;
25125;SDS011;13106;50.808;5.670;2022-12-16T00:51:03;83.35;;;43.38;;
25125;SDS011;13106;50.808;5.670;2022-12-16T00:53:31;79.90;;;41.42;;
25125;SDS011;13106;50.808;5.670;2022-12-16T00:56:00;75.25;;;41.33;;
25125;SDS011;13106;50.808;5.670;2022-12-16T00:58:27;78.68;;;42.78;;
25125;SDS011;13106;50.808;5.670;2022-12-16T01:00:53;80.40;;;42.72;;
25125;SDS011;13106;50.808;5.670;2022-12-16T01:03:19;78.45;;;41.67;;
25125;SDS011;13106;50.808;5.670;2022-12-16T01:05:45;80.63;;;42.00;;
25125;SDS011;13106;50.808;5.670;2022-12-16T01:08:11;71.72;;;41.33;;
25125;SDS011;13106;50.808;5.670;2022-12-16T01:10:37;76.15;;;40.05;;
25125;SDS011;13106;50.808;5.670;2022-12-16T01:13:03;77.28;;;42.80;;
25125;SDS011;13106;50.808;5.670;2022-12-16T01:15:29;86.60;;;42.58;;
25125;SDS011;13106;50.808;5.670;2022-12-16T01:17:55;74.93;;;41.03;;
25125;SDS011;13106;50.808;5.670;2022-12-16T01:20:21;77.97;;;42.25;;
25125;SDS011;13106;50.808;5.670;2022-12-16T01:22:47;77.50;;;39.97;;
25125;SDS011;13106;50.808;5.670;2022-12-16T01:25:13;75.40;;;40.97;;
25125;SDS011;13106;50.808;5.670;2022-12-16T01:27:39;76.43;;;38.33;;
25125;SDS011;13106;50.808;5.670;2022-12-16T01:30:06;71.38;;;38.38;;
25125;SDS011;13106;50.808;5.670;2022-12-16T01:32:33;68.43;;;38.72;;
25125;SDS011;13106;50.808;5.670;2022-12-16T01:34:59;74.15;;;40.30;;
25125;SDS011;13106;50.808;5.670;2022-12-16T01:37:25;78.93;;;40.90;;
25125;SDS011;13106;50.808;5.670;2022-12-16T01:39:51;71.95;;;39.30;;
25125;SDS011;13106;50.808;5.670;2022-12-16T01:42:18;73.28;;;39.35;;
25125;SDS011;13106;50.808;5.670;2022-12-16T01:44:46;73.65;;;39.70;;
25125;SDS011;13106;50.808;5.670;2022-12-16T01:47:14;78.15;;;39.17;;
25125;SDS011;13106;50.808;5.670;2022-12-16T01:50:02;72.45;;;37.22;;
25125;SDS011;13106;50.808;5.670;2022-12-16T01:52:30;82.88;;;39.95;;
25125;SDS011;13106;50.808;5.670;2022-12-16T01:55:08;79.43;;;38.00;;
25125;SDS011;13106;50.808;5.670;2022-12-16T01:57:41;68.70;;;36.67;;
25125;SDS011;13106;50.808;5.670;2022-12-16T02:00:10;68.18;;;34.53;;
25125;SDS011;13106;50.808;5.670;2022-12-16T02:02:36;72.45;;;39.88;;
25125;SDS011;13106;50.808;5.670;2022-12-16T02:05:03;69.57;;;37.90;;
25125;SDS011;13106;50.808;5.670;2022-12-16T02:07:50;77.63;;;36.95;;
25125;SDS011;13106;50.808;5.670;2022-12-16T02:10:17;73.30;;;36.70;;
25125;SDS011;13106;50.808;5.670;2022-12-16T02:12:50;71.90;;;36.40;;
25125;SDS011;13106;50.808;5.670;2022-12-16T02:31:18;76.30;;;35.05;;
25125;SDS011;13106;50.808;5.670;2022-12-16T02:38:50;68.80;;;35.58;;
25125;SDS011;13106;50.808;5.670;2022-12-16T02:41:42;76.22;;;36.58;;
25125;SDS011;13106;50.808;5.670;2022-12-16T02:44:07;86.97;;;36.58;;
25125;SDS011;13106;50.808;5.670;2022-12-16T02:46:37;83.25;;;36.30;;
25125;SDS011;13106;50.808;5.670;2022-12-16T02:49:07;83.88;;;36.63;;
25125;SDS011;13106;50.808;5.670;2022-12-16T02:51:34;80.90;;;37.40;;
25125;SDS011;13106;50.808;5.670;2022-12-16T02:54:02;74.82;;;36.55;;
25125;SDS011;13106;50.808;5.670;2022-12-16T03:01:33;82.07;;;35.00;;
25125;SDS011;13106;50.808;5.670;2022-12-16T03:04:02;76.10;;;35.50;;
25125;SDS011;13106;50.808;5.670;2022-12-16T03:06:30;78.10;;;34.70;;
25125;SDS011;13106;50.808;5.670;2022-12-16T03:08:58;71.10;;;34.15;;
25125;SDS011;13106;50.808;5.670;2022-12-16T03:11:26;80.68;;;36.15;;
25125;SDS011;13106;50.808;5.670;2022-12-16T03:13:53;75.97;;;35.60;;
25125;SDS011;13106;50.808;5.670;2022-12-16T03:16:21;72.40;;;35.28;;
25125;SDS011;13106;50.808;5.670;2022-12-16T03:18:48;88.78;;;34.17;;
25125;SDS011;13106;50.808;5.670;2022-12-16T03:21:15;81.88;;;34.13;;
25125;SDS011;13106;50.808;5.670;2022-12-16T03:23:50;77.47;;;34.10;;
25125;SDS011;13106;50.808;5.670;2022-12-16T03:26:28;59.53;;;32.40;;
25125;SDS011;13106;50.808;5.670;2022-12-16T03:29:01;55.67;;;30.27;;
25125;SDS011;13106;50.808;5.670;2022-12-16T03:36:42;59.20;;;29.33;;
25125;SDS011;13106;50.808;5.670;2022-12-16T03:39:10;49.72;;;27.48;;
25125;SDS011;13106;50.808;5.670;2022-12-16T03:41:38;49.28;;;26.85;;
25125;SDS011;13106;50.808;5.670;2022-12-16T03:44:04;47.72;;;27.25;;
25125;SDS011;13106;50.808;5.670;2022-12-16T03:46:32;49.47;;;28.48;;
25125;SDS011;13106;50.808;5.670;2022-12-16T03:48:58;49.28;;;29.25;;
25125;SDS011;13106;50.808;5.670;2022-12-16T03:51:24;57.33;;;29.00;;
25125;SDS011;13106;50.808;5.670;2022-12-16T03:53:50;57.95;;;29.00;;
25125;SDS011;13106;50.808;5.670;2022-12-16T03:56:16;66.13;;;30.75;;
25125;SDS011;13106;50.808;5.670;2022-12-16T03:58:42;63.90;;;30.35;;
25125;SDS011;13106;50.808;5.670;2022-12-16T04:01:08;49.15;;;27.88;;
25125;SDS011;13106;50.808;5.670;2022-12-16T04:03:35;55.75;;;28.05;;
25125;SDS011;13106;50.808;5.670;2022-12-16T04:06:02;55.80;;;27.73;;
25125;SDS011;13106;50.808;5.670;2022-12-16T04:08:28;65.32;;;27.40;;
25125;SDS011;13106;50.808;5.670;2022-12-16T04:10:54;65.60;;;27.35;;
25125;SDS011;13106;50.808;5.670;2022-12-16T04:13:38;47.38;;;27.20;;
25125;SDS011;13106;50.808;5.670;2022-12-16T04:16:24;52.95;;;25.10;;
25125;SDS011;13106;50.808;5.670;2022-12-16T04:19:23;52.08;;;24.13;;
25125;SDS011;13106;50.808;5.670;2022-12-16T04:22:10;41.40;;;25.55;;
25125;SDS011;13106;50.808;5.670;2022-12-16T04:24:57;52.53;;;25.30;;
25125;SDS011;13106;50.808;5.670;2022-12-16T04:27:23;60.38;;;27.38;;
25125;SDS011;13106;50.808;5.670;2022-12-16T04:29:49;57.70;;;26.30;;
25125;SDS011;13106;50.808;5.670;2022-12-16T04:32:34;65.40;;;27.55;;
25125;SDS011;13106;50.808;5.670;2022-12-16T04:35:18;49.25;;;25.88;;
25125;SDS011;13106;50.808;5.670;2022-12-16T04:38:03;57.22;;;25.17;;
25125;SDS011;13106;50.808;5.670;2022-12-16T04:40:48;52.83;;;24.75;;
25125;SDS011;13106;50.808;5.670;2022-12-16T04:43:33;48.72;;;24.63;;
25125;SDS011;13106;50.808;5.670;2022-12-16T04:46:17;36.13;;;21.27;;
25125;SDS011;13106;50.808;5.670;2022-12-16T04:49:02;44.70;;;22.95;;
25125;SDS011;13106;50.808;5.670;2022-12-16T04:51:46;45.63;;;24.17;;
25125;SDS011;13106;50.808;5.670;2022-12-16T04:54:31;55.83;;;26.13;;
25125;SDS011;13106;50.808;5.670;2022-12-16T04:57:16;53.08;;;27.15;;
25125;SDS011;13106;50.808;5.670;2022-12-16T05:00:00;58.92;;;27.15;;
25125;SDS011;13106;50.808;5.670;2022-12-16T05:02:47;49.05;;;26.02;;
25125;SDS011;13106;50.808;5.670;2022-12-16T05:05:32;46.35;;;26.13;;
25125;SDS011;13106;50.808;5.670;2022-12-16T05:08:16;51.10;;;25.15;;
25125;SDS011;13106;50.808;5.670;2022-12-16T05:11:01;41.30;;;25.10;;
25125;SDS011;13106;50.808;5.670;2022-12-16T05:13:45;48.50;;;26.83;;
25125;SDS011;13106;50.808;5.670;2022-12-16T05:16:30;48.10;;;26.90;;
25125;SDS011;13106;50.808;5.670;2022-12-16T05:19:15;45.75;;;23.63;;
25125;SDS011;13106;50.808;5.670;2022-12-16T05:22:00;47.55;;;24.48;;
25125;SDS011;13106;50.808;5.670;2022-12-16T05:24:44;46.50;;;25.73;;
25125;SDS011;13106;50.808;5.670;2022-12-16T05:27:29;41.55;;;23.90;;
25125;SDS011;13106;50.808;5.670;2022-12-16T05:30:14;47.85;;;23.73;;
25125;SDS011;13106;50.808;5.670;2022-12-16T05:32:59;44.13;;;24.33;;
25125;SDS011;13106;50.808;5.670;2022-12-16T05:35:44;38.80;;;23.48;;
25125;SDS011;13106;50.808;5.670;2022-12-16T05:38:28;44.13;;;24.95;;
25125;SDS011;13106;50.808;5.670;2022-12-16T05:41:13;41.88;;;21.13;;
25125;SDS011;13106;50.808;5.670;2022-12-16T05:43:57;34.50;;;22.02;;
25125;SDS011;13106;50.808;5.670;2022-12-16T05:46:42;44.42;;;22.83;;
25125;SDS011;13106;50.808;5.670;2022-12-16T05:49:27;43.17;;;21.85;;
25125;SDS011;13106;50.808;5.670;2022-12-16T05:52:11;38.45;;;21.13;;
25125;SDS011;13106;50.808;5.670;2022-12-16T05:54:56;39.60;;;21.10;;
25125;SDS011;13106;50.808;5.670;2022-12-16T05:57:40;45.75;;;22.75;;
25125;SDS011;13106;50.808;5.670;2022-12-16T06:00:25;42.65;;;21.52;;
25125;SDS011;13106;50.808;5.670;2022-12-16T06:03:10;43.53;;;22.45;;
25125;SDS011;13106;50.808;5.670;2022-12-16T06:05:54;39.50;;;22.23;;
25125;SDS011;13106;50.808;5.670;2022-12-16T06:08:39;40.40;;;21.30;;
25125;SDS011;13106;50.808;5.670;2022-12-16T06:11:23;40.25;;;21.23;;
25125;SDS011;13106;50.808;5.670;2022-12-16T06:14:08;42.03;;;22.45;;
25125;SDS011;13106;50.808;5.670;2022-12-16T06:16:52;33.97;;;21.92;;
25125;SDS011;13106;50.808;5.670;2022-12-16T06:19:37;47.55;;;21.77;;
25125;SDS011;13106;50.808;5.670;2022-12-16T06:22:22;46.75;;;20.58;;
25125;SDS011;13106;50.808;5.670;2022-12-16T06:25:07;41.88;;;22.65;;
25125;SDS011;13106;50.808;5.670;2022-12-16T06:27:52;43.65;;;22.88;;
25125;SDS011;13106;50.808;5.670;2022-12-16T06:30:37;36.55;;;20.10;;
25125;SDS011;13106;50.808;5.670;2022-12-16T06:33:22;48.08;;;19.58;;
25125;SDS011;13106;50.808;5.670;2022-12-16T06:36:07;36.72;;;19.02;;
25125;SDS011;13106;50.808;5.670;2022-12-16T06:38:52;37.25;;;19.08;;
25125;SDS011;13106;50.808;5.670;2022-12-16T06:41:36;30.45;;;18.17;;
25125;SDS011;13106;50.808;5.670;2022-12-16T06:44:21;33.60;;;18.77;;
25125;SDS011;13106;50.808;5.670;2022-12-16T06:47:06;40.92;;;20.58;;
25125;SDS011;13106;50.808;5.670;2022-12-16T06:49:50;39.22;;;19.00;;
25125;SDS011;13106;50.808;5.670;2022-12-16T06:52:35;38.90;;;20.23;;
25125;SDS011;13106;50.808;5.670;2022-12-16T06:55:20;34.67;;;18.80;;
25125;SDS011;13106;50.808;5.670;2022-12-16T06:58:05;43.42;;;21.80;;
25125;SDS011;13106;50.808;5.670;2022-12-16T07:00:49;40.15;;;21.00;;
25125;SDS011;13106;50.808;5.670;2022-12-16T07:03:34;49.47;;;21.65;;
25125;SDS011;13106;50.808;5.670;2022-12-16T07:06:35;41.03;;;22.08;;
25125;SDS011;13106;50.808;5.670;2022-12-16T07:09:20;48.97;;;20.30;;
25125;SDS011;13106;50.808;5.670;2022-12-16T07:12:05;47.35;;;20.80;;
25125;SDS011;13106;50.808;5.670;2022-12-16T07:15:06;46.53;;;21.88;;
25125;SDS011;13106;50.808;5.670;2022-12-16T07:17:51;52.30;;;21.25;;
25125;SDS011;13106;50.808;5.670;2022-12-16T07:20:36;46.08;;;20.65;;
25125;SDS011;13106;50.808;5.670;2022-12-16T07:23:21;57.75;;;23.10;;
25125;SDS011;13106;50.808;5.670;2022-12-16T07:26:06;52.15;;;22.75;;
25125;SDS011;13106;50.808;5.670;2022-12-16T07:28:50;48.63;;;21.27;;
25125;SDS011;13106;50.808;5.670;2022-12-16T07:31:35;49.85;;;23.10;;
25125;SDS011;13106;50.808;5.670;2022-12-16T07:34:20;52.25;;;22.05;;
25125;SDS011;13106;50.808;5.670;2022-12-16T07:37:04;45.30;;;22.02;;
25125;SDS011;13106;50.808;5.670;2022-12-16T07:39:49;43.88;;;21.33;;
25125;SDS011;13106;50.808;5.670;2022-12-16T07:42:34;55.85;;;22.90;;
25125;SDS011;13106;50.808;5.670;2022-12-16T07:45:18;57.45;;;23.85;;
25125;SDS011;13106;50.808;5.670;2022-12-16T07:48:03;60.90;;;23.58;;
25125;SDS011;13106;50.808;5.670;2022-12-16T07:50:48;57.92;;;24.15;;
25125;SDS011;13106;50.808;5.670;2022-12-16T07:53:32;66.25;;;24.33;;
25125;SDS011;13106;50.808;5.670;2022-12-16T07:56:17;55.55;;;23.20;;
25125;SDS011;13106;50.808;5.670;2022-12-16T07:59:02;74.07;;;24.63;;
25125;SDS011;13106;50.808;5.670;2022-12-16T08:01:46;77.32;;;28.52;;
25125;SDS011;13106;50.808;5.670;2022-12-16T08:04:31;77.25;;;27.23;;
25125;SDS011;13106;50.808;5.670;2022-12-16T08:07:15;67.75;;;25.23;;
25125;SDS011;13106;50.808;5.670;2022-12-16T08:10:00;76.32;;;28.50;;
25125;SDS011;13106;50.808;5.670;2022-12-16T08:12:45;73.82;;;28.75;;
25125;SDS011;13106;50.808;5.670;2022-12-16T08:15:29;77.50;;;27.33;;
25125;SDS011;13106;50.808;5.670;2022-12-16T08:18:14;82.55;;;28.13;;
25125;SDS011;13106;50.808;5.670;2022-12-16T08:20:59;108.00;;;40.85;;
25125;SDS011;13106;50.808;5.670;2022-12-16T08:23:43;93.32;;;34.15;;
25125;SDS011;13106;50.808;5.670;2022-12-16T08:26:28;91.97;;;30.15;;
25125;SDS011;13106;50.808;5.670;2022-12-16T08:29:12;88.28;;;31.92;;
25125;SDS011;13106;50.808;5.670;2022-12-16T08:31:57;89.47;;;30.33;;
25125;SDS011;13106;50.808;5.670;2022-12-16T08:34:42;91.30;;;30.48;;
25125;SDS011;13106;50.808;5.670;2022-12-16T08:37:26;97.18;;;32.40;;
25125;SDS011;13106;50.808;5.670;2022-12-16T08:40:11;100.97;;;32.45;;
25125;SDS011;13106;50.808;5.670;2022-12-16T08:42:56;111.60;;;36.70;;
25125;SDS011;13106;50.808;5.670;2022-12-16T08:45:41;106.78;;;36.60;;
25125;SDS011;13106;50.808;5.670;2022-12-16T08:48:25;110.35;;;38.05;;
25125;SDS011;13106;50.808;5.670;2022-12-16T08:51:10;121.32;;;36.83;;
25125;SDS011;13106;50.808;5.670;2022-12-16T08:53:55;123.13;;;38.33;;
25125;SDS011;13106;50.808;5.670;2022-12-16T08:56:40;115.28;;;38.63;;
25125;SDS011;13106;50.808;5.670;2022-12-16T08:59:25;122.00;;;42.13;;
25125;SDS011;13106;50.808;5.670;2022-12-16T09:02:10;156.63;;;53.85;;
25125;SDS011;13106;50.808;5.670;2022-12-16T09:04:55;124.15;;;45.72;;
25125;SDS011;13106;50.808;5.670;2022-12-16T09:07:39;131.25;;;46.05;;
25125;SDS011;13106;50.808;5.670;2022-12-16T09:10:24;119.05;;;40.60;;
25125;SDS011;13106;50.808;5.670;2022-12-16T09:13:09;106.80;;;59.35;;
25125;SDS011;13106;50.808;5.670;2022-12-16T09:15:54;112.32;;;38.03;;
25125;SDS011;13106;50.808;5.670;2022-12-16T09:18:39;111.70;;;40.55;;
25125;SDS011;13106;50.808;5.670;2022-12-16T09:21:24;127.90;;;39.38;;
25125;SDS011;13106;50.808;5.670;2022-12-16T09:24:08;125.10;;;39.88;;
25125;SDS011;13106;50.808;5.670;2022-12-16T09:26:55;106.82;;;36.30;;
25125;SDS011;13106;50.808;5.670;2022-12-16T09:29:39;116.80;;;44.13;;
25125;SDS011;13106;50.808;5.670;2022-12-16T09:32:24;108.05;;;54.50;;
25125;SDS011;13106;50.808;5.670;2022-12-16T09:35:08;100.70;;;45.50;;
25125;SDS011;13106;50.808;5.670;2022-12-16T09:37:53;102.45;;;35.05;;
25125;SDS011;13106;50.808;5.670;2022-12-16T09:40:38;113.07;;;42.53;;
25125;SDS011;13106;50.808;5.670;2022-12-16T09:46:49;131.40;;;64.68;;
25125;SDS011;13106;50.808;5.670;2022-12-16T09:52:18;125.22;;;51.65;;
25125;SDS011;13106;50.808;5.670;2022-12-16T09:55:04;106.63;;;46.92;;
25125;SDS011;13106;50.808;5.670;2022-12-16T09:57:50;111.75;;;47.10;;
25125;SDS011;13106;50.808;5.670;2022-12-16T10:00:34;122.38;;;46.33;;
25125;SDS011;13106;50.808;5.670;2022-12-16T10:03:26;120.15;;;47.67;;
25125;SDS011;13106;50.808;5.670;2022-12-16T10:09:08;121.28;;;51.92;;
25125;SDS011;13106;50.808;5.670;2022-12-16T10:12:05;114.90;;;54.10;;
25125;SDS011;13106;50.808;5.670;2022-12-16T10:14:59;134.88;;;52.95;;
25125;SDS011;13106;50.808;5.670;2022-12-16T10:17:45;115.47;;;48.40;;
25125;SDS011;13106;50.808;5.670;2022-12-16T10:23:23;165.65;;;52.17;;
25125;SDS011;13106;50.808;5.670;2022-12-16T10:26:33;133.10;;;38.95;;
25125;SDS011;13106;50.808;5.670;2022-12-16T10:29:18;128.73;;;36.22;;
25125;SDS011;13106;50.808;5.670;2022-12-16T10:34:57;163.60;;;41.45;;
25125;SDS011;13106;50.808;5.670;2022-12-16T10:37:41;181.60;;;44.28;;
25125;SDS011;13106;50.808;5.670;2022-12-16T10:40:27;144.40;;;39.42;;
25125;SDS011;13106;50.808;5.670;2022-12-16T10:45:57;152.38;;;41.67;;
25125;SDS011;13106;50.808;5.670;2022-12-16T10:48:43;165.00;;;39.25;;
25125;SDS011;13106;50.808;5.670;2022-12-16T10:51:28;214.73;;;47.67;;
25125;SDS011;13106;50.808;5.670;2022-12-16T10:59:48;212.38;;;44.97;;
25125;SDS011;13106;50.808;5.670;2022-12-16T11:02:33;205.25;;;43.80;;
25125;SDS011;13106;50.808;5.670;2022-12-16T11:05:33;175.23;;;46.42;;
25125;SDS011;13106;50.808;5.670;2022-12-16T11:08:23;188.88;;;44.70;;
25125;SDS011;13106;50.808;5.670;2022-12-16T11:11:19;212.17;;;45.07;;
25125;SDS011;13106;50.808;5.670;2022-12-16T11:14:24;236.95;;;51.00;;
25125;SDS011;13106;50.808;5.670;2022-12-16T11:20:14;223.43;;;48.00;;
25125;SDS011;13106;50.808;5.670;2022-12-16T11:23:16;218.75;;;47.10;;
25125;SDS011;13106;50.808;5.670;2022-12-16T11:29:07;229.52;;;47.88;;
25125;SDS011;13106;50.808;5.670;2022-12-16T11:32:09;248.40;;;47.83;;
25125;SDS011;13106;50.808;5.670;2022-12-16T11:34:59;230.82;;;48.63;;
25125;SDS011;13106;50.808;5.670;2022-12-16T11:37:45;278.67;;;51.42;;
25125;SDS011;13106;50.808;5.670;2022-12-16T11:40:48;243.30;;;50.88;;
25125;SDS011;13106;50.808;5.670;2022-12-16T11:43:33;255.13;;;48.83;;
25125;SDS011;13106;50.808;5.670;2022-12-16T11:46:26;319.65;;;54.97;;
25125;SDS011;13106;50.808;5.670;2022-12-16T11:49:25;274.88;;;52.97;;
25125;SDS011;13106;50.808;5.670;2022-12-16T11:52:12;275.23;;;53.85;;
25125;SDS011;13106;50.808;5.670;2022-12-16T11:58:30;305.20;;;54.80;;
25125;SDS011;13106;50.808;5.670;2022-12-16T12:00:58;325.02;;;57.25;;
25125;SDS011;13106;50.808;5.670;2022-12-16T12:03:45;381.10;;;58.42;;
25125;SDS011;13106;50.808;5.670;2022-12-16T12:13:10;270.58;;;51.90;;
25125;SDS011;13106;50.808;5.670;2022-12-16T12:16:03;262.10;;;51.15;;
25125;SDS011;13106;50.808;5.670;2022-12-16T12:21:50;450.58;;;65.28;;
25125;SDS011;13106;50.808;5.670;2022-12-16T12:30:29;305.27;;;54.47;;
25125;SDS011;13106;50.808;5.670;2022-12-16T12:33:30;319.63;;;60.92;;
25125;SDS011;13106;50.808;5.670;2022-12-16T12:39:23;301.10;;;55.10;;
25125;SDS011;13106;50.808;5.670;2022-12-16T12:50:57;285.15;;;56.95;;
25125;SDS011;13106;50.808;5.670;2022-12-16T12:53:56;301.80;;;57.17;;
25125;SDS011;13106;50.808;5.670;2022-12-16T12:56:49;245.68;;;51.92;;
25125;SDS011;13106;50.808;5.670;2022-12-16T12:59:42;340.25;;;59.75;;
25125;SDS011;13106;50.808;5.670;2022-12-16T13:02:32;387.63;;;64.05;;
25125;SDS011;13106;50.808;5.670;2022-12-16T13:05:21;417.05;;;64.70;;
25125;SDS011;13106;50.808;5.670;2022-12-16T13:11:11;315.50;;;58.67;;
25125;SDS011;13106;50.808;5.670;2022-12-16T13:13:57;422.50;;;67.85;;
25125;SDS011;13106;50.808;5.670;2022-12-16T13:33:56;392.30;;;67.22;;
25125;SDS011;13106;50.808;5.670;2022-12-16T13:36:42;335.77;;;64.82;;
25125;SDS011;13106;50.808;5.670;2022-12-16T13:39:27;334.85;;;66.30;;
25125;SDS011;13106;50.808;5.670;2022-12-16T13:42:29;411.98;;;69.38;;
25125;SDS011;13106;50.808;5.670;2022-12-16T13:45:16;493.40;;;76.40;;
25125;SDS011;13106;50.808;5.670;2022-12-16T13:48:01;282.23;;;60.00;;
25125;SDS011;13106;50.808;5.670;2022-12-16T13:50:48;301.95;;;61.80;;
25125;SDS011;13106;50.808;5.670;2022-12-16T13:53:36;324.20;;;61.55;;
25125;SDS011;13106;50.808;5.670;2022-12-16T13:56:26;383.38;;;65.65;;
25125;SDS011;13106;50.808;5.670;2022-12-16T13:59:15;546.33;;;82.07;;
25125;SDS011;13106;50.808;5.670;2022-12-16T14:02:02;306.90;;;64.13;;
25125;SDS011;13106;50.808;5.670;2022-12-16T14:04:56;298.13;;;61.30;;
25125;SDS011;13106;50.808;5.670;2022-12-16T14:07:41;317.73;;;66.10;;
25125;SDS011;13106;50.808;5.670;2022-12-16T14:10:33;244.73;;;60.90;;
25125;SDS011;13106;50.808;5.670;2022-12-16T14:19:33;143.40;;;45.58;;
25125;SDS011;13106;50.808;5.670;2022-12-16T14:25:11;139.95;;;43.40;;
25125;SDS011;13106;50.808;5.670;2022-12-16T14:27:57;153.43;;;44.58;;
25125;SDS011;13106;50.808;5.670;2022-12-16T14:30:42;155.35;;;45.25;;
25125;SDS011;13106;50.808;5.670;2022-12-16T14:33:27;166.43;;;47.88;;
25125;SDS011;13106;50.808;5.670;2022-12-16T14:36:26;166.20;;;45.78;;
25125;SDS011;13106;50.808;5.670;2022-12-16T14:39:12;146.18;;;45.55;;
25125;SDS011;13106;50.808;5.670;2022-12-16T14:41:57;140.57;;;44.00;;
25125;SDS011;13106;50.808;5.670;2022-12-16T14:44:45;180.13;;;47.22;;
25125;SDS011;13106;50.808;5.670;2022-12-16T14:47:30;146.57;;;45.35;;
25125;SDS011;13106;50.808;5.670;2022-12-16T14:50:20;157.43;;;45.88;;
25125;SDS011;13106;50.808;5.670;2022-12-16T14:53:09;145.05;;;43.92;;
25125;SDS011;13106;50.808;5.670;2022-12-16T14:56:08;165.13;;;45.00;;
25125;SDS011;13106;50.808;5.670;2022-12-16T14:59:05;180.80;;;50.63;;
25125;SDS011;13106;50.808;5.670;2022-12-16T15:01:52;174.68;;;47.17;;
25125;SDS011;13106;50.808;5.670;2022-12-16T15:04:38;181.13;;;45.78;;
25125;SDS011;13106;50.808;5.670;2022-12-16T15:07:23;172.52;;;48.40;;
25125;SDS011;13106;50.808;5.670;2022-12-16T15:10:11;147.32;;;46.83;;
25125;SDS011;13106;50.808;5.670;2022-12-16T15:12:56;193.63;;;51.83;;
25125;SDS011;13106;50.808;5.670;2022-12-16T15:15:42;128.80;;;46.13;;
25125;SDS011;13106;50.808;5.670;2022-12-16T15:18:31;129.25;;;45.40;;
25125;SDS011;13106;50.808;5.670;2022-12-16T15:21:16;120.45;;;44.20;;
25125;SDS011;13106;50.808;5.670;2022-12-16T15:24:02;121.20;;;44.13;;
25125;SDS011;13106;50.808;5.670;2022-12-16T15:26:50;96.07;;;38.63;;
25125;SDS011;13106;50.808;5.670;2022-12-16T15:29:56;108.70;;;39.17;;
25125;SDS011;13106;50.808;5.670;2022-12-16T15:32:41;96.88;;;36.13;;
25125;SDS011;13106;50.808;5.670;2022-12-16T15:40:58;105.05;;;38.92;;
25125;SDS011;13106;50.808;5.670;2022-12-16T15:43:44;93.95;;;36.15;;
25125;SDS011;13106;50.808;5.670;2022-12-16T15:46:29;99.05;;;40.45;;
25125;SDS011;13106;50.808;5.670;2022-12-16T15:49:18;118.68;;;44.20;;
25125;SDS011;13106;50.808;5.670;2022-12-16T16:01:02;103.15;;;40.28;;
25125;SDS011;13106;50.808;5.670;2022-12-16T16:03:48;108.00;;;41.38;;
25125;SDS011;13106;50.808;5.670;2022-12-16T16:06:33;103.63;;;40.95;;
25125;SDS011;13106;50.808;5.670;2022-12-16T16:09:20;110.00;;;43.10;;
25125;SDS011;13106;50.808;5.670;2022-12-16T16:12:04;104.88;;;41.60;;
25125;SDS011;13106;50.808;5.670;2022-12-16T16:14:49;120.07;;;41.45;;
25125;SDS011;13106;50.808;5.670;2022-12-16T16:17:34;106.22;;;41.50;;
25125;SDS011;13106;50.808;5.670;2022-12-16T16:20:19;103.60;;;41.75;;
25125;SDS011;13106;50.808;5.670;2022-12-16T16:23:03;110.68;;;40.75;;
25125;SDS011;13106;50.808;5.670;2022-12-16T16:25:48;107.00;;;41.97;;
25125;SDS011;13106;50.808;5.670;2022-12-16T16:28:32;105.15;;;41.67;;
25125;SDS011;13106;50.808;5.670;2022-12-16T16:31:17;105.05;;;40.30;;
25125;SDS011;13106;50.808;5.670;2022-12-16T16:34:02;92.35;;;38.60;;
25125;SDS011;13106;50.808;5.670;2022-12-16T16:36:47;112.72;;;41.08;;
25125;SDS011;13106;50.808;5.670;2022-12-16T16:39:35;117.50;;;40.30;;
25125;SDS011;13106;50.808;5.670;2022-12-16T16:42:20;111.25;;;40.72;;
25125;SDS011;13106;50.808;5.670;2022-12-16T16:45:04;113.95;;;41.53;;
25125;SDS011;13106;50.808;5.670;2022-12-16T16:47:49;115.93;;;42.60;;
25125;SDS011;13106;50.808;5.670;2022-12-16T16:50:33;105.88;;;42.95;;
25125;SDS011;13106;50.808;5.670;2022-12-16T16:53:18;116.50;;;43.33;;
25125;SDS011;13106;50.808;5.670;2022-12-16T16:56:03;109.32;;;42.22;;
25125;SDS011;13106;50.808;5.670;2022-12-16T16:58:48;117.93;;;43.55;;
25125;SDS011;13106;50.808;5.670;2022-12-16T17:01:32;104.18;;;38.83;;
25125;SDS011;13106;50.808;5.670;2022-12-16T17:04:17;104.47;;;41.97;;
25125;SDS011;13106;50.808;5.670;2022-12-16T17:07:01;108.70;;;40.53;;
25125;SDS011;13106;50.808;5.670;2022-12-16T17:09:46;137.38;;;49.40;;
25125;SDS011;13106;50.808;5.670;2022-12-16T17:12:30;150.50;;;52.22;;
25125;SDS011;13106;50.808;5.670;2022-12-16T17:15:22;105.38;;;46.28;;
25125;SDS011;13106;50.808;5.670;2022-12-16T17:18:07;114.72;;;45.83;;
25125;SDS011;13106;50.808;5.670;2022-12-16T17:20:52;116.78;;;45.75;;
25125;SDS011;13106;50.808;5.670;2022-12-16T17:23:37;147.30;;;51.90;;
25125;SDS011;13106;50.808;5.670;2022-12-16T17:26:23;134.98;;;48.40;;
25125;SDS011;13106;50.808;5.670;2022-12-16T17:29:13;111.13;;;43.70;;
25125;SDS011;13106;50.808;5.670;2022-12-16T17:31:59;112.38;;;41.70;;
25125;SDS011;13106;50.808;5.670;2022-12-16T17:34:43;116.68;;;46.05;;
25125;SDS011;13106;50.808;5.670;2022-12-16T17:37:28;119.10;;;45.67;;
25125;SDS011;13106;50.808;5.670;2022-12-16T17:40:12;110.03;;;45.10;;
25125;SDS011;13106;50.808;5.670;2022-12-16T17:42:57;115.18;;;45.35;;
25125;SDS011;13106;50.808;5.670;2022-12-16T17:45:41;120.88;;;46.75;;
25125;SDS011;13106;50.808;5.670;2022-12-16T17:48:34;99.03;;;41.67;;
25125;SDS011;13106;50.808;5.670;2022-12-16T17:51:18;133.02;;;48.22;;
25125;SDS011;13106;50.808;5.670;2022-12-16T17:54:03;109.00;;;43.08;;
25125;SDS011;13106;50.808;5.670;2022-12-16T17:56:48;102.47;;;41.53;;